Terminal Aerodrome Forecast
Issued by NWS Kansas City/Pleasant Hill, MO

Home | Current Version | Previous Version | Text Only | Print | Product List | Glossary On
Versions: 1 2 3 4 5 6 7 8 9 10 11 12 13 14
000
FTUS43 KEAX 180528
TAFMCI
TAF
KMCI 180528Z 1806/1906 VRB04KT 4SM BR BKN150
      TEMPO 1807/1808 2SM BR BKN008
     FM180800 34015G25KT P6SM VCSH OVC007
     FM181200 34018G28KT 6SM -RA BR BKN012
     FM181800 33022G30KT P6SM SCT050=

USA.gov is the U.S. government's official web portal to all federal, state and local government web resources and services.